createdAt,value
2022-12-20T00:04:41.284Z,17.501226
2022-12-20T00:09:43.336Z,17.737798
2022-12-20T00:14:45.392Z,17.746618
2022-12-20T00:19:47.453Z,17.160766
2022-12-20T00:24:49.375Z,16.992164
2022-12-20T00:29:51.435Z,17.2508
2022-12-20T00:34:53.588Z,16.90327
2022-12-20T00:39:55.501Z,17.503438
2022-12-20T00:44:57.448Z,17.553306
2022-12-20T00:49:59.453Z,17.296964
2022-12-20T00:55:01.507Z,16.304364
2022-12-20T01:00:03.376Z,17.321226
2022-12-20T01:05:05.293Z,17.32679
2022-12-20T01:10:07.094Z,16.65108
2022-12-20T01:15:08.961Z,16.190054
2022-12-20T01:20:10.963Z,16.55513
2022-12-20T01:25:13.246Z,16.272842
2022-12-20T01:30:15.096Z,15.709774
2022-12-20T01:35:16.602Z,16.026134
2022-12-20T01:40:18.349Z,16.425988
2022-12-20T01:45:20.087Z,16.205048
2022-12-20T01:50:21.844Z,16.243804
2022-12-20T01:55:23.582Z,16.199756
2022-12-20T02:00:25.247Z,16.304174
2022-12-20T02:05:26.955Z,16.261186
2022-12-20T02:10:28.716Z,15.692024
2022-12-20T02:15:30.285Z,15.3582
2022-12-20T02:20:32.073Z,15.875892
2022-12-20T02:25:33.759Z,16.100984
2022-12-20T02:30:35.261Z,16.63025
2022-12-20T02:35:36.872Z,16.766638
2022-12-20T02:40:38.416Z,16.953328
2022-12-20T02:45:40.158Z,16.736174
2022-12-20T02:50:42.043Z,17.318064
2022-12-20T02:55:43.596Z,16.695316
2022-12-20T03:00:45.353Z,16.873702
2022-12-20T03:05:46.906Z,17.084586
2022-12-20T03:10:48.659Z,16.279206
2022-12-20T03:15:50.256Z,16.67104
2022-12-20T03:20:51.974Z,16.833536
2022-12-20T03:25:53.986Z,17.613406
2022-12-20T03:30:55.632Z,16.830184
2022-12-20T03:35:57.462Z,17.536792
2022-12-20T03:40:59.465Z,16.831256
2022-12-20T03:46:01.417Z,17.52903
2022-12-20T03:51:03.127Z,16.200556
2022-12-20T03:56:04.947Z,16.497852
2022-12-20T04:01:06.666Z,16.592296
2022-12-20T04:06:08.212Z,16.046176
2022-12-20T04:11:09.815Z,16.498816
2022-12-20T04:16:11.555Z,16.206378
2022-12-20T04:21:13.538Z,15.949696
2022-12-20T04:26:15.057Z,16.788078
2022-12-20T04:31:23.307Z,16.585322
2022-12-20T04:36:25.599Z,16.402866
2022-12-20T04:41:27.148Z,17.663722
2022-12-20T04:46:28.733Z,17.255116
2022-12-20T04:51:30.451Z,18.200412
2022-12-20T04:56:32.191Z,18.377318
2022-12-20T05:01:33.932Z,19.07459
2022-12-20T05:06:35.807Z,19.350446
2022-12-20T05:11:37.741Z,21.504264
2022-12-20T05:16:40.092Z,21.53907
2022-12-20T05:21:42.326Z,22.857654
2022-12-20T05:26:44.190Z,21.870982
2022-12-20T05:31:45.839Z,20.738098
2022-12-20T05:36:47.646Z,22.26047
2022-12-20T05:41:49.448Z,22.745298
2022-12-20T05:46:51.304Z,23.943208
2022-12-20T05:51:53.436Z,23.991272
2022-12-20T05:56:55.604Z,24.177528
2022-12-20T06:01:57.590Z,25.643832
2022-12-20T06:06:59.563Z,24.256096
2022-12-20T06:12:01.406Z,24.690188
2022-12-20T06:17:03.176Z,25.76866
2022-12-20T06:22:04.813Z,25.741738
2022-12-20T06:27:07.023Z,25.81196
2022-12-20T06:32:09.272Z,25.984742
2022-12-20T06:37:11.146Z,25.625012
2022-12-20T06:42:13.101Z,26.996234
2022-12-20T06:47:15.052Z,26.50359
2022-12-20T06:52:16.805Z,26.72894
2022-12-20T06:57:18.416Z,26.94828
2022-12-20T07:02:20.132Z,28.624508
2022-12-20T07:07:22.002Z,27.427232
2022-12-20T07:12:23.699Z,27.297018
2022-12-20T07:17:25.433Z,28.607492
2022-12-20T07:22:28.064Z,28.499382
2022-12-20T07:27:29.929Z,28.26608
2022-12-20T07:32:31.644Z,27.827972
2022-12-20T07:37:34.514Z,30.045384
2022-12-20T07:42:39.080Z,28.86374
2022-12-20T07:47:43.080Z,28.78117
2022-12-20T07:52:45.352Z,27.580788
2022-12-20T07:57:47.073Z,28.332082
2022-12-20T08:02:49.086Z,28.599784
2022-12-20T08:07:56.837Z,30.126598
2022-12-20T08:13:00.749Z,30.684106
2022-12-20T08:18:02.244Z,29.898372
2022-12-20T08:23:04.213Z,30.70704
2022-12-20T08:28:06.106Z,29.982258
2022-12-20T08:33:08.015Z,29.255674
2022-12-20T08:38:10.043Z,30.979626
2022-12-20T08:43:11.985Z,30.988242
2022-12-20T08:48:13.968Z,30.430722
2022-12-20T08:53:15.986Z,32.012764
2022-12-20T08:58:17.695Z,30.506874
2022-12-20T09:03:19.542Z,30.358762
2022-12-20T09:08:21.135Z,31.38506
2022-12-20T09:13:22.760Z,32.34206
2022-12-20T09:18:24.355Z,31.215114
2022-12-20T09:23:26.606Z,30.10052
2022-12-20T09:28:28.183Z,31.217748
2022-12-20T09:33:29.866Z,30.684976
2022-12-20T09:38:31.989Z,30.273342
2022-12-20T09:43:33.745Z,29.311308
2022-12-20T09:48:35.248Z,30.948524
2022-12-20T09:53:37.160Z,30.30557
2022-12-20T09:58:38.813Z,29.212848
2022-12-20T10:03:40.615Z,29.857784
2022-12-20T10:08:42.512Z,28.972312
2022-12-20T10:13:44.172Z,28.051328
2022-12-20T10:18:45.818Z,27.695342
2022-12-20T10:23:47.753Z,28.326342
2022-12-20T10:28:54.206Z,28.447262
2022-12-20T10:33:56.797Z,29.257042
2022-12-20T10:38:58.347Z,28.359222
2022-12-20T10:43:59.912Z,27.806572
2022-12-20T10:49:01.971Z,26.439188
2022-12-20T10:54:04.326Z,27.69625
2022-12-20T10:59:06.232Z,27.82033
2022-12-20T11:04:08.396Z,27.342694
2022-12-20T11:09:10.227Z,29.30801
2022-12-20T11:14:12.155Z,30.266976
2022-12-20T11:19:13.905Z,29.307154
2022-12-20T11:24:15.612Z,29.4709
2022-12-20T11:29:17.253Z,32.516428
2022-12-20T11:34:18.836Z,30.867514
2022-12-20T11:39:20.421Z,31.112704
2022-12-20T11:44:25.725Z,31.060636
2022-12-20T11:49:28.334Z,30.93395
2022-12-20T11:54:30.359Z,31.579296
2022-12-20T11:59:32.342Z,32.204788
2022-12-20T12:04:34.371Z,32.412242
2022-12-20T12:09:36.232Z,31.09418
2022-12-20T12:14:38.198Z,32.890748
2022-12-20T12:19:40.005Z,32.149614
2022-12-20T12:24:43.024Z,31.982302
2022-12-20T12:29:44.873Z,31.66781
2022-12-20T12:34:46.964Z,32.644444
2022-12-20T12:39:48.865Z,31.85408
2022-12-20T12:44:50.860Z,32.954768
2022-12-20T12:49:52.740Z,32.056472
2022-12-20T12:54:55.061Z,31.739974
2022-12-20T12:59:57.071Z,32.843526
2022-12-20T13:04:58.750Z,31.825176
2022-12-20T13:10:00.572Z,31.6347
2022-12-20T13:15:02.663Z,31.594304
2022-12-20T13:20:04.533Z,32.041246
2022-12-20T13:25:06.539Z,31.83245
2022-12-20T13:30:08.429Z,31.240068
2022-12-20T13:35:10.295Z,30.86024
2022-12-20T13:40:12.369Z,30.78387
2022-12-20T13:45:14.387Z,31.252212
2022-12-20T13:50:16.380Z,30.598916
2022-12-20T13:55:19.517Z,30.754302
2022-12-20T14:00:21.345Z,30.88495
2022-12-20T14:05:22.928Z,31.125526
2022-12-20T14:10:24.474Z,30.186196
2022-12-20T14:15:26.504Z,30.281996
2022-12-20T14:20:28.146Z,30.201204
2022-12-20T14:25:29.942Z,29.897528
2022-12-20T14:30:31.647Z,30.904382
2022-12-20T14:35:33.262Z,29.573948
2022-12-20T14:40:34.863Z,29.175406
2022-12-20T14:45:36.626Z,29.771264
2022-12-20T14:50:38.596Z,29.093718
2022-12-20T14:55:40.631Z,28.380634
2022-12-20T15:00:42.634Z,29.280884
2022-12-20T15:05:44.533Z,28.848094
2022-12-20T15:10:46.490Z,28.521012
2022-12-20T15:15:48.525Z,28.04826
2022-12-20T15:20:50.354Z,27.898424
2022-12-20T15:25:52.314Z,27.956244
2022-12-20T15:30:54.329Z,27.803314
2022-12-20T15:35:56.383Z,27.332952
2022-12-20T15:40:58.325Z,26.779296
2022-12-20T15:46:00.307Z,26.8978
2022-12-20T15:51:02.838Z,27.0567
2022-12-20T15:56:05.139Z,27.227732
2022-12-20T16:01:07.073Z,26.74331
2022-12-20T16:06:08.849Z,26.32599
2022-12-20T16:11:10.704Z,25.713566
2022-12-20T16:16:12.696Z,25.44653
2022-12-20T16:21:14.581Z,25.91593
2022-12-20T16:26:17.605Z,25.821024
2022-12-20T16:31:19.662Z,25.439026
2022-12-20T16:36:21.201Z,24.810536
2022-12-20T16:41:22.730Z,24.8789
2022-12-20T16:46:24.597Z,24.420342
2022-12-20T16:51:26.465Z,24.590912
2022-12-20T16:56:28.474Z,24.031234
2022-12-20T17:01:30.651Z,24.378616
2022-12-20T17:06:32.788Z,24.032754
2022-12-20T17:11:34.643Z,23.877192
2022-12-20T17:16:36.506Z,23.827962
2022-12-20T17:28:52.601Z,23.300104
2022-12-20T17:33:54.578Z,22.99202
2022-12-20T17:38:56.485Z,22.742204
2022-12-20T17:43:58.327Z,23.102368
2022-12-20T17:49:00.139Z,22.64951
2022-12-20T17:54:01.955Z,22.72588
2022-12-20T17:59:03.685Z,23.052052
2022-12-20T18:04:05.886Z,22.641328
2022-12-20T18:09:08.265Z,22.696298
2022-12-20T18:14:09.829Z,22.779724
2022-12-20T18:19:12.092Z,22.54995
2022-12-20T18:24:14.021Z,22.403222
2022-12-20T18:29:16.447Z,22.273266
2022-12-20T18:34:18.619Z,22.306118
2022-12-20T18:39:20.346Z,22.077932
2022-12-20T18:44:23.410Z,21.691334
2022-12-20T18:49:24.975Z,21.489826
2022-12-20T18:54:26.726Z,21.541268
2022-12-20T18:59:28.678Z,22.199366
2022-12-20T19:04:30.257Z,21.843612
2022-12-20T19:09:31.821Z,21.726208
2022-12-20T19:14:33.408Z,21.87029
2022-12-20T19:19:35.043Z,22.123892
2022-12-20T19:24:36.625Z,21.63194
2022-12-20T19:29:38.589Z,21.251734
2022-12-20T19:34:40.712Z,21.32714
2022-12-20T19:39:42.877Z,22.015308
2022-12-20T19:44:44.823Z,21.884158
2022-12-20T19:49:46.854Z,21.730618
2022-12-20T19:54:48.763Z,21.574568
2022-12-20T19:59:55.723Z,21.908502
2022-12-20T20:04:58.489Z,21.265168
2022-12-20T20:10:00.295Z,21.694618
2022-12-20T20:15:03.829Z,21.636174
2022-12-20T20:20:05.860Z,21.094354
2022-12-20T20:25:07.656Z,21.205204
2022-12-20T20:30:12.708Z,21.00721
2022-12-20T20:35:14.776Z,20.46653
2022-12-20T20:40:16.901Z,19.558332
2022-12-20T20:45:18.726Z,19.192876
2022-12-20T20:50:20.700Z,18.471776
2022-12-20T20:55:22.163Z,18.62845
2022-12-20T21:00:23.867Z,17.468198
2022-12-20T21:10:58.006Z,17.967734
2022-12-20T21:15:59.912Z,17.33006
2022-12-20T21:21:02.095Z,17.548272
2022-12-20T21:26:03.920Z,16.581088
2022-12-20T21:31:05.885Z,17.385668
2022-12-20T21:36:07.993Z,17.579428
2022-12-20T21:41:09.889Z,16.922064
2022-12-20T21:46:11.974Z,16.729458
2022-12-20T21:51:13.965Z,16.423614
2022-12-20T21:56:16.000Z,16.4688
2022-12-20T22:01:18.259Z,16.591238
2022-12-20T22:06:20.589Z,16.33666
2022-12-20T22:11:22.246Z,16.166824
2022-12-20T22:16:23.726Z,15.903438
2022-12-20T22:21:25.429Z,16.28644
2022-12-20T22:26:27.029Z,16.148736
2022-12-20T22:31:28.857Z,15.486542
2022-12-20T22:36:30.746Z,16.375768
2022-12-20T22:41:32.679Z,16.023828
2022-12-20T22:46:34.329Z,16.086858
2022-12-20T22:51:35.968Z,15.52626
2022-12-20T22:56:37.904Z,16.458556
2022-12-20T23:01:40.469Z,15.262074
2022-12-20T23:06:43.032Z,15.209914
2022-12-20T23:11:45.287Z,14.92118
2022-12-20T23:16:47.143Z,15.306202
2022-12-20T23:21:49.205Z,15.401976
2022-12-20T23:26:51.188Z,15.418314
2022-12-20T23:31:53.297Z,14.812352
2022-12-20T23:36:55.417Z,15.134968
2022-12-20T23:41:57.480Z,14.101892
2022-12-20T23:46:59.479Z,14.819056
2022-12-20T23:52:01.317Z,14.681366
2022-12-20T23:57:03.232Z,14.674744
